sensor_id;sensor_type;location;lat;lon;timestamp;temperature;humidity
39621;DHT22;25309;48.686;9.170;2023-09-07T00:00:27;18.10;99.90
39621;DHT22;25309;48.686;9.170;2023-09-07T00:02:54;18.10;99.90
39621;DHT22;25309;48.686;9.170;2023-09-07T00:05:21;18.00;99.90
39621;DHT22;25309;48.686;9.170;2023-09-07T00:07:48;18.00;99.90
39621;DHT22;25309;48.686;9.170;2023-09-07T00:10:15;18.00;99.90
39621;DHT22;25309;48.686;9.170;2023-09-07T00:12:44;18.00;99.90
39621;DHT22;25309;48.686;9.170;2023-09-07T00:15:11;18.10;99.90
39621;DHT22;25309;48.686;9.170;2023-09-07T00:17:39;18.00;99.90
39621;DHT22;25309;48.686;9.170;2023-09-07T00:20:07;18.00;99.90
39621;DHT22;25309;48.686;9.170;2023-09-07T00:22:37;18.00;99.90
39621;DHT22;25309;48.686;9.170;2023-09-07T00:25:05;18.00;99.90
39621;DHT22;25309;48.686;9.170;2023-09-07T00:27:33;17.90;99.90
39621;DHT22;25309;48.686;9.170;2023-09-07T00:30:01;17.90;99.90
39621;DHT22;25309;48.686;9.170;2023-09-07T00:32:28;17.80;99.90
39621;DHT22;25309;48.686;9.170;2023-09-07T00:34:56;17.70;99.90
39621;DHT22;25309;48.686;9.170;2023-09-07T00:37:23;17.70;99.90
39621;DHT22;25309;48.686;9.170;2023-09-07T00:39:50;17.70;99.90
39621;DHT22;25309;48.686;9.170;2023-09-07T00:42:19;17.70;99.90
39621;DHT22;25309;48.686;9.170;2023-09-07T00:44:46;17.70;99.90
39621;DHT22;25309;48.686;9.170;2023-09-07T00:47:14;17.60;99.90
39621;DHT22;25309;48.686;9.170;2023-09-07T00:49:42;17.60;99.90
39621;DHT22;25309;48.686;9.170;2023-09-07T00:52:11;17.60;99.90
39621;DHT22;25309;48.686;9.170;2023-09-07T00:54:40;17.50;99.90
39621;DHT22;25309;48.686;9.170;2023-09-07T00:57:09;17.50;99.90
39621;DHT22;25309;48.686;9.170;2023-09-07T00:59:36;17.50;99.90
39621;DHT22;25309;48.686;9.170;2023-09-07T01:02:03;17.50;99.90
39621;DHT22;25309;48.686;9.170;2023-09-07T01:04:32;17.50;99.90
39621;DHT22;25309;48.686;9.170;2023-09-07T01:07:03;17.50;99.90
39621;DHT22;25309;48.686;9.170;2023-09-07T01:09:35;17.50;99.90
39621;DHT22;25309;48.686;9.170;2023-09-07T01:12:04;17.40;99.90
39621;DHT22;25309;48.686;9.170;2023-09-07T01:14:31;17.50;99.90
39621;DHT22;25309;48.686;9.170;2023-09-07T01:16:58;17.40;99.90
39621;DHT22;25309;48.686;9.170;2023-09-07T01:19:25;17.40;99.90
39621;DHT22;25309;48.686;9.170;2023-09-07T01:21:54;17.30;99.90
39621;DHT22;25309;48.686;9.170;2023-09-07T01:24:22;17.30;99.90
39621;DHT22;25309;48.686;9.170;2023-09-07T01:26:50;17.20;99.90
39621;DHT22;25309;48.686;9.170;2023-09-07T01:29:18;17.20;99.90
39621;DHT22;25309;48.686;9.170;2023-09-07T01:31:45;17.20;99.90
39621;DHT22;25309;48.686;9.170;2023-09-07T01:34:12;17.20;99.90
39621;DHT22;25309;48.686;9.170;2023-09-07T01:36:39;17.20;99.90
39621;DHT22;25309;48.686;9.170;2023-09-07T01:39:08;17.20;99.90
39621;DHT22;25309;48.686;9.170;2023-09-07T01:41:35;17.20;99.90
39621;DHT22;25309;48.686;9.170;2023-09-07T01:44:03;17.20;99.90
39621;DHT22;25309;48.686;9.170;2023-09-07T01:46:30;17.20;99.90
39621;DHT22;25309;48.686;9.170;2023-09-07T01:48:57;17.20;99.90
39621;DHT22;25309;48.686;9.170;2023-09-07T01:51:24;17.10;99.90
39621;DHT22;25309;48.686;9.170;2023-09-07T01:53:54;17.10;99.90
39621;DHT22;25309;48.686;9.170;2023-09-07T01:56:23;17.10;99.90
39621;DHT22;25309;48.686;9.170;2023-09-07T01:58:50;17.10;99.90
39621;DHT22;25309;48.686;9.170;2023-09-07T02:01:21;17.10;99.90
39621;DHT22;25309;48.686;9.170;2023-09-07T02:03:49;17.00;99.90
39621;DHT22;25309;48.686;9.170;2023-09-07T02:06:16;17.00;99.90
39621;DHT22;25309;48.686;9.170;2023-09-07T02:08:43;17.00;99.90
39621;DHT22;25309;48.686;9.170;2023-09-07T02:11:10;17.00;99.90
39621;DHT22;25309;48.686;9.170;2023-09-07T02:13:41;16.90;99.90
39621;DHT22;25309;48.686;9.170;2023-09-07T02:16:08;16.90;99.90
39621;DHT22;25309;48.686;9.170;2023-09-07T02:18:36;16.90;99.90
39621;DHT22;25309;48.686;9.170;2023-09-07T02:21:05;16.90;99.90
39621;DHT22;25309;48.686;9.170;2023-09-07T02:23:32;16.90;99.90
39621;DHT22;25309;48.686;9.170;2023-09-07T02:25:59;16.80;99.90
39621;DHT22;25309;48.686;9.170;2023-09-07T02:28:27;16.70;99.90
39621;DHT22;25309;48.686;9.170;2023-09-07T02:31:02;16.70;99.90
39621;DHT22;25309;48.686;9.170;2023-09-07T02:33:30;16.60;99.90
39621;DHT22;25309;48.686;9.170;2023-09-07T02:35:57;16.60;99.90
39621;DHT22;25309;48.686;9.170;2023-09-07T02:38:26;16.60;99.90
39621;DHT22;25309;48.686;9.170;2023-09-07T02:40:55;16.60;99.90
39621;DHT22;25309;48.686;9.170;2023-09-07T02:43:22;16.50;99.90
39621;DHT22;25309;48.686;9.170;2023-09-07T02:45:49;16.50;99.90
39621;DHT22;25309;48.686;9.170;2023-09-07T02:48:20;16.40;99.90
39621;DHT22;25309;48.686;9.170;2023-09-07T02:50:48;16.40;99.90
39621;DHT22;25309;48.686;9.170;2023-09-07T02:53:20;16.40;99.90
39621;DHT22;25309;48.686;9.170;2023-09-07T02:55:47;16.40;99.90
39621;DHT22;25309;48.686;9.170;2023-09-07T02:58:14;16.40;99.90
39621;DHT22;25309;48.686;9.170;2023-09-07T03:00:42;16.40;99.90
39621;DHT22;25309;48.686;9.170;2023-09-07T03:03:13;16.40;99.90
39621;DHT22;25309;48.686;9.170;2023-09-07T03:05:43;16.30;99.90
39621;DHT22;25309;48.686;9.170;2023-09-07T03:08:10;16.30;99.90
39621;DHT22;25309;48.686;9.170;2023-09-07T03:10:37;16.30;99.90
39621;DHT22;25309;48.686;9.170;2023-09-07T03:13:06;16.30;99.90
39621;DHT22;25309;48.686;9.170;2023-09-07T03:15:34;16.30;99.90
39621;DHT22;25309;48.686;9.170;2023-09-07T03:18:02;16.30;99.90
39621;DHT22;25309;48.686;9.170;2023-09-07T03:20:29;16.20;99.90
39621;DHT22;25309;48.686;9.170;2023-09-07T03:22:58;16.20;99.90
39621;DHT22;25309;48.686;9.170;2023-09-07T03:25:25;16.20;99.90
39621;DHT22;25309;48.686;9.170;2023-09-07T03:27:52;16.20;99.90
39621;DHT22;25309;48.686;9.170;2023-09-07T03:30:19;16.10;99.90
39621;DHT22;25309;48.686;9.170;2023-09-07T03:32:47;16.10;99.90
39621;DHT22;25309;48.686;9.170;2023-09-07T03:35:14;16.10;99.90
39621;DHT22;25309;48.686;9.170;2023-09-07T03:37:42;16.00;99.90
39621;DHT22;25309;48.686;9.170;2023-09-07T03:40:11;16.00;99.90
39621;DHT22;25309;48.686;9.170;2023-09-07T03:42:39;15.90;99.90
39621;DHT22;25309;48.686;9.170;2023-09-07T03:45:08;15.90;99.90
39621;DHT22;25309;48.686;9.170;2023-09-07T03:47:36;15.90;99.90
39621;DHT22;25309;48.686;9.170;2023-09-07T03:50:05;15.80;99.90
39621;DHT22;25309;48.686;9.170;2023-09-07T03:52:33;15.70;99.90
39621;DHT22;25309;48.686;9.170;2023-09-07T03:55:02;15.70;99.90
39621;DHT22;25309;48.686;9.170;2023-09-07T03:57:31;15.60;99.90
39621;DHT22;25309;48.686;9.170;2023-09-07T03:59:59;15.60;99.90
39621;DHT22;25309;48.686;9.170;2023-09-07T04:02:26;15.50;99.90
39621;DHT22;25309;48.686;9.170;2023-09-07T04:04:54;15.50;99.90
39621;DHT22;25309;48.686;9.170;2023-09-07T04:07:24;15.40;99.90
39621;DHT22;25309;48.686;9.170;2023-09-07T04:09:51;15.40;99.90
39621;DHT22;25309;48.686;9.170;2023-09-07T04:12:18;15.40;99.90
39621;DHT22;25309;48.686;9.170;2023-09-07T04:14:47;15.40;99.90
39621;DHT22;25309;48.686;9.170;2023-09-07T04:17:14;15.30;99.90
39621;DHT22;25309;48.686;9.170;2023-09-07T04:19:41;15.30;99.90
39621;DHT22;25309;48.686;9.170;2023-09-07T04:22:08;15.30;99.90
39621;DHT22;25309;48.686;9.170;2023-09-07T04:24:35;15.30;99.90
39621;DHT22;25309;48.686;9.170;2023-09-07T04:27:04;15.20;99.90
39621;DHT22;25309;48.686;9.170;2023-09-07T04:29:33;15.20;99.90
39621;DHT22;25309;48.686;9.170;2023-09-07T04:32:01;15.20;99.90
39621;DHT22;25309;48.686;9.170;2023-09-07T04:34:29;15.20;99.90
39621;DHT22;25309;48.686;9.170;2023-09-07T04:36:56;15.10;99.90
39621;DHT22;25309;48.686;9.170;2023-09-07T04:39:23;15.10;99.90
39621;DHT22;25309;48.686;9.170;2023-09-07T04:41:51;15.10;99.90
39621;DHT22;25309;48.686;9.170;2023-09-07T04:44:19;15.10;99.90
39621;DHT22;25309;48.686;9.170;2023-09-07T04:46:47;15.10;99.90
39621;DHT22;25309;48.686;9.170;2023-09-07T04:49:16;15.10;99.90
39621;DHT22;25309;48.686;9.170;2023-09-07T04:51:43;15.10;99.90
39621;DHT22;25309;48.686;9.170;2023-09-07T04:54:10;15.10;99.90
39621;DHT22;25309;48.686;9.170;2023-09-07T04:56:37;15.10;99.90
39621;DHT22;25309;48.686;9.170;2023-09-07T04:59:04;15.10;99.90
39621;DHT22;25309;48.686;9.170;2023-09-07T05:01:31;15.10;99.90
39621;DHT22;25309;48.686;9.170;2023-09-07T05:03:59;15.00;99.90
39621;DHT22;25309;48.686;9.170;2023-09-07T05:06:27;15.00;99.90
39621;DHT22;25309;48.686;9.170;2023-09-07T05:08:55;15.00;99.90
39621;DHT22;25309;48.686;9.170;2023-09-07T05:11:22;15.00;99.90
39621;DHT22;25309;48.686;9.170;2023-09-07T05:13:48;15.00;99.90
39621;DHT22;25309;48.686;9.170;2023-09-07T05:16:15;15.00;99.90
39621;DHT22;25309;48.686;9.170;2023-09-07T05:18:43;15.00;99.90
39621;DHT22;25309;48.686;9.170;2023-09-07T05:21:13;15.10;99.90
39621;DHT22;25309;48.686;9.170;2023-09-07T05:23:43;15.10;99.90
39621;DHT22;25309;48.686;9.170;2023-09-07T05:26:10;15.10;99.90
39621;DHT22;25309;48.686;9.170;2023-09-07T05:28:40;15.20;99.90
39621;DHT22;25309;48.686;9.170;2023-09-07T05:31:11;15.20;99.90
39621;DHT22;25309;48.686;9.170;2023-09-07T05:33:38;15.30;99.90
39621;DHT22;25309;48.686;9.170;2023-09-07T05:36:06;15.30;99.90
39621;DHT22;25309;48.686;9.170;2023-09-07T05:38:33;15.40;99.90
39621;DHT22;25309;48.686;9.170;2023-09-07T05:41:02;15.40;99.90
39621;DHT22;25309;48.686;9.170;2023-09-07T05:43:29;15.50;99.90
39621;DHT22;25309;48.686;9.170;2023-09-07T05:45:56;15.60;99.90
39621;DHT22;25309;48.686;9.170;2023-09-07T05:48:23;15.60;99.90
39621;DHT22;25309;48.686;9.170;2023-09-07T05:50:51;15.70;99.90
39621;DHT22;25309;48.686;9.170;2023-09-07T05:53:18;15.80;99.90
39621;DHT22;25309;48.686;9.170;2023-09-07T05:55:46;15.90;99.90
39621;DHT22;25309;48.686;9.170;2023-09-07T05:58:15;15.90;99.90
39621;DHT22;25309;48.686;9.170;2023-09-07T06:00:43;15.90;99.90
39621;DHT22;25309;48.686;9.170;2023-09-07T06:03:11;15.90;99.90
39621;DHT22;25309;48.686;9.170;2023-09-07T06:05:39;15.90;99.90
39621;DHT22;25309;48.686;9.170;2023-09-07T06:08:08;16.00;99.90
39621;DHT22;25309;48.686;9.170;2023-09-07T06:10:35;16.00;99.90
39621;DHT22;25309;48.686;9.170;2023-09-07T06:13:03;16.10;99.90
39621;DHT22;25309;48.686;9.170;2023-09-07T06:15:32;16.10;99.90
39621;DHT22;25309;48.686;9.170;2023-09-07T06:18:00;16.10;99.90
39621;DHT22;25309;48.686;9.170;2023-09-07T06:20:27;16.20;99.90
39621;DHT22;25309;48.686;9.170;2023-09-07T06:22:56;16.20;99.90
39621;DHT22;25309;48.686;9.170;2023-09-07T06:25:24;16.30;99.90
39621;DHT22;25309;48.686;9.170;2023-09-07T06:27:51;16.40;99.90
39621;DHT22;25309;48.686;9.170;2023-09-07T06:30:18;16.50;99.90
39621;DHT22;25309;48.686;9.170;2023-09-07T06:32:48;16.60;99.90
39621;DHT22;25309;48.686;9.170;2023-09-07T06:35:16;16.60;99.90
39621;DHT22;25309;48.686;9.170;2023-09-07T06:37:45;16.70;99.90
39621;DHT22;25309;48.686;9.170;2023-09-07T06:40:15;16.90;99.90
39621;DHT22;25309;48.686;9.170;2023-09-07T06:42:46;16.90;99.90
39621;DHT22;25309;48.686;9.170;2023-09-07T06:45:15;17.00;99.90
39621;DHT22;25309;48.686;9.170;2023-09-07T06:47:42;17.10;99.90
39621;DHT22;25309;48.686;9.170;2023-09-07T06:50:12;17.20;99.90
39621;DHT22;25309;48.686;9.170;2023-09-07T06:52:39;17.30;99.90
39621;DHT22;25309;48.686;9.170;2023-09-07T06:55:07;17.50;99.90
39621;DHT22;25309;48.686;9.170;2023-09-07T06:57:35;17.70;99.90
39621;DHT22;25309;48.686;9.170;2023-09-07T07:00:05;17.80;99.90
39621;DHT22;25309;48.686;9.170;2023-09-07T07:02:33;17.90;99.90
39621;DHT22;25309;48.686;9.170;2023-09-07T07:05:01;18.00;99.90
39621;DHT22;25309;48.686;9.170;2023-09-07T07:07:31;18.10;99.90
39621;DHT22;25309;48.686;9.170;2023-09-07T07:09:58;18.10;99.90
39621;DHT22;25309;48.686;9.170;2023-09-07T07:12:25;18.10;99.90
39621;DHT22;25309;48.686;9.170;2023-09-07T07:14:53;18.10;99.90
39621;DHT22;25309;48.686;9.170;2023-09-07T07:17:20;18.20;99.90
39621;DHT22;25309;48.686;9.170;2023-09-07T07:19:48;18.30;99.90
39621;DHT22;25309;48.686;9.170;2023-09-07T07:22:15;18.40;99.90
39621;DHT22;25309;48.686;9.170;2023-09-07T07:24:46;18.50;99.90
39621;DHT22;25309;48.686;9.170;2023-09-07T07:27:13;18.50;99.90
39621;DHT22;25309;48.686;9.170;2023-09-07T07:29:40;18.60;99.90
39621;DHT22;25309;48.686;9.170;2023-09-07T07:32:07;18.80;99.90
39621;DHT22;25309;48.686;9.170;2023-09-07T07:34:34;18.90;99.90
39621;DHT22;25309;48.686;9.170;2023-09-07T07:37:01;19.00;99.90
39621;DHT22;25309;48.686;9.170;2023-09-07T07:39:28;19.20;99.90
39621;DHT22;25309;48.686;9.170;2023-09-07T07:41:57;19.40;99.90
39621;DHT22;25309;48.686;9.170;2023-09-07T07:44:24;19.60;99.90
39621;DHT22;25309;48.686;9.170;2023-09-07T07:46:51;19.70;99.90
39621;DHT22;25309;48.686;9.170;2023-09-07T07:49:18;19.80;99.90
39621;DHT22;25309;48.686;9.170;2023-09-07T07:51:46;20.00;99.90
39621;DHT22;25309;48.686;9.170;2023-09-07T07:54:17;20.10;99.90
39621;DHT22;25309;48.686;9.170;2023-09-07T07:56:48;20.20;99.90
39621;DHT22;25309;48.686;9.170;2023-09-07T07:59:40;20.30;99.90
39621;DHT22;25309;48.686;9.170;2023-09-07T08:02:08;20.40;99.90
39621;DHT22;25309;48.686;9.170;2023-09-07T08:04:36;20.50;99.90
39621;DHT22;25309;48.686;9.170;2023-09-07T08:07:04;20.60;99.90
39621;DHT22;25309;48.686;9.170;2023-09-07T08:09:33;20.80;99.90
39621;DHT22;25309;48.686;9.170;2023-09-07T08:12:00;20.90;99.90
39621;DHT22;25309;48.686;9.170;2023-09-07T08:14:32;21.20;99.90
39621;DHT22;25309;48.686;9.170;2023-09-07T08:17:03;21.40;99.90
39621;DHT22;25309;48.686;9.170;2023-09-07T08:19:30;21.60;99.90
39621;DHT22;25309;48.686;9.170;2023-09-07T08:21:59;21.80;99.90
39621;DHT22;25309;48.686;9.170;2023-09-07T08:24:26;22.00;99.90
39621;DHT22;25309;48.686;9.170;2023-09-07T08:26:53;22.10;99.90
39621;DHT22;25309;48.686;9.170;2023-09-07T08:29:22;22.30;99.90
39621;DHT22;25309;48.686;9.170;2023-09-07T08:31:53;22.50;99.90
39621;DHT22;25309;48.686;9.170;2023-09-07T08:34:25;22.70;99.90
39621;DHT22;25309;48.686;9.170;2023-09-07T08:36:52;22.90;99.90
39621;DHT22;25309;48.686;9.170;2023-09-07T08:39:20;23.10;99.10
39621;DHT22;25309;48.686;9.170;2023-09-07T08:41:47;24.00;97.60
39621;DHT22;25309;48.686;9.170;2023-09-07T08:44:27;25.40;96.00
39621;DHT22;25309;48.686;9.170;2023-09-07T08:46:55;26.90;93.10
39621;DHT22;25309;48.686;9.170;2023-09-07T08:49:26;27.80;92.00
39621;DHT22;25309;48.686;9.170;2023-09-07T08:51:53;28.20;90.50
39621;DHT22;25309;48.686;9.170;2023-09-07T08:54:22;28.70;89.50
39621;DHT22;25309;48.686;9.170;2023-09-07T08:56:50;29.10;89.00
39621;DHT22;25309;48.686;9.170;2023-09-07T08:59:17;29.40;88.20
39621;DHT22;25309;48.686;9.170;2023-09-07T09:01:44;29.40;86.50
39621;DHT22;25309;48.686;9.170;2023-09-07T09:04:11;29.10;85.90
39621;DHT22;25309;48.686;9.170;2023-09-07T09:06:41;29.00;87.40
39621;DHT22;25309;48.686;9.170;2023-09-07T09:09:08;29.20;86.40
39621;DHT22;25309;48.686;9.170;2023-09-07T09:11:35;29.40;86.70
39621;DHT22;25309;48.686;9.170;2023-09-07T09:14:05;29.50;85.00
39621;DHT22;25309;48.686;9.170;2023-09-07T09:16:32;29.10;86.30
39621;DHT22;25309;48.686;9.170;2023-09-07T09:18:59;29.60;85.70
39621;DHT22;25309;48.686;9.170;2023-09-07T09:21:27;29.80;87.10
39621;DHT22;25309;48.686;9.170;2023-09-07T09:23:56;30.00;83.40
39621;DHT22;25309;48.686;9.170;2023-09-07T09:26:23;30.30;85.30
39621;DHT22;25309;48.686;9.170;2023-09-07T09:28:55;30.70;83.70
39621;DHT22;25309;48.686;9.170;2023-09-07T09:31:24;31.00;83.50
39621;DHT22;25309;48.686;9.170;2023-09-07T09:33:51;31.00;83.10
39621;DHT22;25309;48.686;9.170;2023-09-07T09:36:19;30.90;81.90
39621;DHT22;25309;48.686;9.170;2023-09-07T09:38:48;31.10;82.10
39621;DHT22;25309;48.686;9.170;2023-09-07T09:41:17;31.60;81.50
39621;DHT22;25309;48.686;9.170;2023-09-07T09:43:46;31.90;79.70
39621;DHT22;25309;48.686;9.170;2023-09-07T09:46:16;31.90;78.10
39621;DHT22;25309;48.686;9.170;2023-09-07T09:48:44;31.70;79.30
39621;DHT22;25309;48.686;9.170;2023-09-07T09:51:12;31.70;80.50
39621;DHT22;25309;48.686;9.170;2023-09-07T09:53:42;32.20;80.30
39621;DHT22;25309;48.686;9.170;2023-09-07T09:56:09;32.60;79.00
39621;DHT22;25309;48.686;9.170;2023-09-07T09:58:38;32.90;78.00
39621;DHT22;25309;48.686;9.170;2023-09-07T10:01:06;33.20;77.70
39621;DHT22;25309;48.686;9.170;2023-09-07T10:03:37;33.20;78.10
39621;DHT22;25309;48.686;9.170;2023-09-07T10:06:18;33.50;76.70
39621;DHT22;25309;48.686;9.170;2023-09-07T10:08:53;33.60;75.50
39621;DHT22;25309;48.686;9.170;2023-09-07T10:11:27;33.90;75.40
39621;DHT22;25309;48.686;9.170;2023-09-07T10:14:01;34.00;75.00
39621;DHT22;25309;48.686;9.170;2023-09-07T10:16:41;34.30;74.70
39621;DHT22;25309;48.686;9.170;2023-09-07T10:19:14;34.50;73.50
39621;DHT22;25309;48.686;9.170;2023-09-07T10:21:41;34.40;75.10
39621;DHT22;25309;48.686;9.170;2023-09-07T10:24:09;34.60;74.50
39621;DHT22;25309;48.686;9.170;2023-09-07T10:26:36;34.70;74.00
39621;DHT22;25309;48.686;9.170;2023-09-07T10:29:04;34.90;73.70
39621;DHT22;25309;48.686;9.170;2023-09-07T10:31:32;35.10;73.10
39621;DHT22;25309;48.686;9.170;2023-09-07T10:34:19;35.40;72.80
39621;DHT22;25309;48.686;9.170;2023-09-07T10:36:47;35.50;72.20
39621;DHT22;25309;48.686;9.170;2023-09-07T10:39:14;35.60;72.60
39621;DHT22;25309;48.686;9.170;2023-09-07T10:41:45;35.80;72.30
39621;DHT22;25309;48.686;9.170;2023-09-07T10:44:14;35.80;72.20
39621;DHT22;25309;48.686;9.170;2023-09-07T10:46:40;35.80;71.90
39621;DHT22;25309;48.686;9.170;2023-09-07T10:49:08;35.70;72.50
39621;DHT22;25309;48.686;9.170;2023-09-07T10:51:41;35.80;71.00
39621;DHT22;25309;48.686;9.170;2023-09-07T10:54:16;36.00;71.20
39621;DHT22;25309;48.686;9.170;2023-09-07T10:56:45;36.10;71.10
39621;DHT22;25309;48.686;9.170;2023-09-07T10:59:14;36.00;71.80
39621;DHT22;25309;48.686;9.170;2023-09-07T11:01:41;35.90;71.90
39621;DHT22;25309;48.686;9.170;2023-09-07T11:04:08;36.10;70.50
39621;DHT22;25309;48.686;9.170;2023-09-07T11:06:39;36.20;70.80
39621;DHT22;25309;48.686;9.170;2023-09-07T11:09:06;36.20;70.00
39621;DHT22;25309;48.686;9.170;2023-09-07T11:11:35;36.30;70.00
39621;DHT22;25309;48.686;9.170;2023-09-07T11:14:03;36.30;71.10
39621;DHT22;25309;48.686;9.170;2023-09-07T11:16:34;36.30;71.00
39621;DHT22;25309;48.686;9.170;2023-09-07T11:19:05;36.40;70.80
39621;DHT22;25309;48.686;9.170;2023-09-07T11:21:32;36.50;70.00
39621;DHT22;25309;48.686;9.170;2023-09-07T11:24:01;36.70;69.10
39621;DHT22;25309;48.686;9.170;2023-09-07T11:26:41;36.70;70.10
39621;DHT22;25309;48.686;9.170;2023-09-07T11:29:08;36.90;69.00
39621;DHT22;25309;48.686;9.170;2023-09-07T11:31:36;37.00;69.70
39621;DHT22;25309;48.686;9.170;2023-09-07T11:34:09;37.20;69.40
39621;DHT22;25309;48.686;9.170;2023-09-07T11:36:37;37.30;67.80
39621;DHT22;25309;48.686;9.170;2023-09-07T11:39:04;37.50;68.50
39621;DHT22;25309;48.686;9.170;2023-09-07T11:41:39;37.60;68.00
39621;DHT22;25309;48.686;9.170;2023-09-07T11:44:08;37.80;67.70
39621;DHT22;25309;48.686;9.170;2023-09-07T11:46:36;37.80;67.20
39621;DHT22;25309;48.686;9.170;2023-09-07T11:49:04;38.00;66.60
39621;DHT22;25309;48.686;9.170;2023-09-07T11:51:36;38.00;65.70
39621;DHT22;25309;48.686;9.170;2023-09-07T11:54:04;37.80;67.20
39621;DHT22;25309;48.686;9.170;2023-09-07T11:56:31;37.60;67.00
39621;DHT22;25309;48.686;9.170;2023-09-07T11:58:58;37.60;67.10
39621;DHT22;25309;48.686;9.170;2023-09-07T12:01:26;37.50;67.00
39621;DHT22;25309;48.686;9.170;2023-09-07T12:03:55;37.60;67.30
39621;DHT22;25309;48.686;9.170;2023-09-07T12:06:22;37.70;66.40
39621;DHT22;25309;48.686;9.170;2023-09-07T12:08:59;37.80;67.00
39621;DHT22;25309;48.686;9.170;2023-09-07T12:11:27;37.80;66.10
39621;DHT22;25309;48.686;9.170;2023-09-07T12:13:54;37.80;66.50
39621;DHT22;25309;48.686;9.170;2023-09-07T12:16:21;37.90;66.30
39621;DHT22;25309;48.686;9.170;2023-09-07T12:18:49;37.90;67.10
39621;DHT22;25309;48.686;9.170;2023-09-07T12:21:17;38.10;65.00
39621;DHT22;25309;48.686;9.170;2023-09-07T12:23:44;38.00;64.90
39621;DHT22;25309;48.686;9.170;2023-09-07T12:26:12;38.00;64.00
39621;DHT22;25309;48.686;9.170;2023-09-07T12:28:39;37.90;65.60
39621;DHT22;25309;48.686;9.170;2023-09-07T12:31:06;37.60;63.80
39621;DHT22;25309;48.686;9.170;2023-09-07T12:33:33;37.60;64.20
39621;DHT22;25309;48.686;9.170;2023-09-07T12:36:00;37.60;64.20
39621;DHT22;25309;48.686;9.170;2023-09-07T12:38:29;37.40;64.30
39621;DHT22;25309;48.686;9.170;2023-09-07T12:40:56;37.50;64.80
39621;DHT22;25309;48.686;9.170;2023-09-07T12:43:23;37.50;65.10
39621;DHT22;25309;48.686;9.170;2023-09-07T12:45:52;37.70;64.90
39621;DHT22;25309;48.686;9.170;2023-09-07T12:48:20;37.80;64.40
39621;DHT22;25309;48.686;9.170;2023-09-07T12:50:47;37.90;63.60
39621;DHT22;25309;48.686;9.170;2023-09-07T12:53:14;38.00;63.40
39621;DHT22;25309;48.686;9.170;2023-09-07T12:55:42;38.10;63.40
39621;DHT22;25309;48.686;9.170;2023-09-07T12:58:09;38.20;63.20
39621;DHT22;25309;48.686;9.170;2023-09-07T13:00:36;38.10;64.40
39621;DHT22;25309;48.686;9.170;2023-09-07T13:03:04;38.20;63.40
39621;DHT22;25309;48.686;9.170;2023-09-07T13:05:31;38.40;64.30
39621;DHT22;25309;48.686;9.170;2023-09-07T13:07:59;38.50;64.20
39621;DHT22;25309;48.686;9.170;2023-09-07T13:10:29;38.60;64.60
39621;DHT22;25309;48.686;9.170;2023-09-07T13:12:57;38.60;64.50
39621;DHT22;25309;48.686;9.170;2023-09-07T13:15:24;38.50;64.60
39621;DHT22;25309;48.686;9.170;2023-09-07T13:17:51;38.60;64.50
39621;DHT22;25309;48.686;9.170;2023-09-07T13:20:18;38.60;64.10
39621;DHT22;25309;48.686;9.170;2023-09-07T13:22:46;38.80;64.10
39621;DHT22;25309;48.686;9.170;2023-09-07T13:25:13;38.90;63.80
39621;DHT22;25309;48.686;9.170;2023-09-07T13:27:40;39.00;63.60
39621;DHT22;25309;48.686;9.170;2023-09-07T13:30:09;39.10;64.00
39621;DHT22;25309;48.686;9.170;2023-09-07T13:32:38;39.00;63.10
39621;DHT22;25309;48.686;9.170;2023-09-07T13:35:06;39.10;63.20
39621;DHT22;25309;48.686;9.170;2023-09-07T13:37:33;39.20;62.90
39621;DHT22;25309;48.686;9.170;2023-09-07T13:40:03;39.30;62.70
39621;DHT22;25309;48.686;9.170;2023-09-07T13:42:31;39.30;62.20
39621;DHT22;25309;48.686;9.170;2023-09-07T13:44:58;39.30;62.50
39621;DHT22;25309;48.686;9.170;2023-09-07T13:47:26;39.40;63.10
39621;DHT22;25309;48.686;9.170;2023-09-07T13:49:53;39.20;62.50
39621;DHT22;25309;48.686;9.170;2023-09-07T13:52:20;39.10;61.50
39621;DHT22;25309;48.686;9.170;2023-09-07T13:54:47;38.80;63.00
39621;DHT22;25309;48.686;9.170;2023-09-07T13:57:14;38.70;63.50
39621;DHT22;25309;48.686;9.170;2023-09-07T13:59:41;38.70;63.50
39621;DHT22;25309;48.686;9.170;2023-09-07T14:02:08;38.70;63.80
39621;DHT22;25309;48.686;9.170;2023-09-07T14:04:36;38.70;63.80
39621;DHT22;25309;48.686;9.170;2023-09-07T14:07:03;38.60;63.80
39621;DHT22;25309;48.686;9.170;2023-09-07T14:09:30;38.60;63.50
39621;DHT22;25309;48.686;9.170;2023-09-07T14:11:57;38.60;63.80
39621;DHT22;25309;48.686;9.170;2023-09-07T14:14:24;38.60;63.30
39621;DHT22;25309;48.686;9.170;2023-09-07T14:16:51;38.60;62.90
39621;DHT22;25309;48.686;9.170;2023-09-07T14:19:24;38.50;62.90
39621;DHT22;25309;48.686;9.170;2023-09-07T14:21:55;38.40;62.80
39621;DHT22;25309;48.686;9.170;2023-09-07T14:24:21;38.30;62.90
39621;DHT22;25309;48.686;9.170;2023-09-07T14:26:48;38.20;63.30
39621;DHT22;25309;48.686;9.170;2023-09-07T14:29:15;38.00;62.60
39621;DHT22;25309;48.686;9.170;2023-09-07T14:31:42;37.80;63.50
39621;DHT22;25309;48.686;9.170;2023-09-07T14:34:10;37.70;63.70
39621;DHT22;25309;48.686;9.170;2023-09-07T14:36:38;37.40;62.20
39621;DHT22;25309;48.686;9.170;2023-09-07T14:39:06;37.00;63.20
39621;DHT22;25309;48.686;9.170;2023-09-07T14:41:35;36.70;64.80
39621;DHT22;25309;48.686;9.170;2023-09-07T14:44:02;36.50;64.80
39621;DHT22;25309;48.686;9.170;2023-09-07T14:46:29;36.30;64.00
39621;DHT22;25309;48.686;9.170;2023-09-07T14:48:56;36.20;64.20
39621;DHT22;25309;48.686;9.170;2023-09-07T14:51:24;36.00;62.80
39621;DHT22;25309;48.686;9.170;2023-09-07T14:53:51;35.60;62.60
39621;DHT22;25309;48.686;9.170;2023-09-07T14:56:20;35.20;64.20
39621;DHT22;25309;48.686;9.170;2023-09-07T14:58:47;34.90;63.90
39621;DHT22;25309;48.686;9.170;2023-09-07T15:01:14;34.60;64.30
39621;DHT22;25309;48.686;9.170;2023-09-07T15:03:41;34.30;64.70
39621;DHT22;25309;48.686;9.170;2023-09-07T15:06:08;34.10;65.50
39621;DHT22;25309;48.686;9.170;2023-09-07T15:08:38;34.20;66.10
39621;DHT22;25309;48.686;9.170;2023-09-07T15:11:06;34.30;66.10
39621;DHT22;25309;48.686;9.170;2023-09-07T15:13:34;34.30;65.70
39621;DHT22;25309;48.686;9.170;2023-09-07T15:16:01;34.40;65.70
39621;DHT22;25309;48.686;9.170;2023-09-07T15:18:29;34.30;64.40
39621;DHT22;25309;48.686;9.170;2023-09-07T15:20:56;34.10;63.80
39621;DHT22;25309;48.686;9.170;2023-09-07T15:23:23;34.00;65.50
39621;DHT22;25309;48.686;9.170;2023-09-07T15:25:50;33.90;65.80
39621;DHT22;25309;48.686;9.170;2023-09-07T15:28:18;33.80;64.70
39621;DHT22;25309;48.686;9.170;2023-09-07T15:30:46;33.60;64.70
39621;DHT22;25309;48.686;9.170;2023-09-07T15:33:13;33.20;65.40
39621;DHT22;25309;48.686;9.170;2023-09-07T15:35:40;32.90;66.70